createdAt,value
2022-11-26T00:00:59.359Z,86.13
2022-11-26T00:03:25.967Z,86.30
2022-11-26T00:05:56.639Z,86.16
2022-11-26T00:08:30.299Z,86.08
2022-11-26T00:10:56.837Z,86.44
2022-11-26T00:13:26.741Z,86.14
2022-11-26T00:15:53.884Z,86.56
2022-11-26T00:18:23.439Z,86.25
2022-11-26T00:20:59.769Z,86.13
2022-11-26T00:23:28.458Z,86.03
2022-11-26T00:26:04.029Z,85.89
2022-11-26T00:28:37.306Z,86.03
2022-11-26T00:31:12.847Z,86.14
2022-11-26T00:33:39.448Z,86.06
2022-11-26T00:36:25.322Z,85.77
2022-11-26T00:38:56.763Z,85.71
2022-11-26T00:41:26.195Z,86.05
2022-11-26T00:43:52.870Z,85.78
2022-11-26T00:46:22.704Z,86.09
2022-11-26T00:48:49.533Z,86.07
2022-11-26T00:51:36.654Z,85.90
2022-11-26T00:54:04.187Z,86.16
2022-11-26T00:56:36.489Z,85.72
2022-11-26T00:59:04.459Z,86.07
2022-11-26T01:01:32.861Z,85.51
2022-11-26T01:03:59.559Z,85.82
2022-11-26T01:06:32.766Z,85.63
2022-11-26T01:08:59.593Z,85.70
2022-11-26T01:11:26.566Z,86.02
2022-11-26T01:13:54.709Z,85.84
2022-11-26T01:16:30.420Z,85.69
2022-11-26T01:18:59.959Z,86.30
2022-11-26T01:21:29.849Z,86.06
2022-11-26T01:23:57.214Z,86.29
2022-11-26T01:26:27.550Z,85.85
2022-11-26T01:28:55.247Z,85.98
2022-11-26T01:31:25.679Z,85.85
2022-11-26T01:33:52.627Z,86.11
2022-11-26T01:36:24.929Z,86.12
2022-11-26T01:38:56.765Z,85.93
2022-11-26T01:41:48.317Z,86.11
2022-11-26T01:44:20.920Z,86.00
2022-11-26T01:46:48.432Z,85.96
2022-11-26T01:49:23.383Z,86.09
2022-11-26T01:52:19.957Z,86.35
2022-11-26T01:54:47.440Z,86.31
2022-11-26T01:57:33.996Z,85.88
2022-11-26T02:00:04.200Z,86.00
2022-11-26T02:02:30.882Z,86.05
2022-11-26T02:05:09.467Z,85.91
2022-11-26T02:07:36.821Z,86.05
2022-11-26T02:10:04.004Z,85.63
2022-11-26T02:12:30.858Z,85.99
2022-11-26T02:14:57.380Z,86.04
2022-11-26T02:17:39.685Z,85.77
2022-11-26T02:20:35.359Z,86.06
2022-11-26T02:23:20.350Z,86.00
2022-11-26T02:26:01.903Z,86.06
2022-11-26T02:28:50.166Z,85.96
2022-11-26T02:31:25.933Z,85.46
2022-11-26T02:34:00.126Z,85.54
2022-11-26T02:36:42.744Z,85.24
2022-11-26T02:39:12.240Z,84.81
2022-11-26T02:41:44.497Z,84.64
2022-11-26T02:44:12.151Z,84.85
2022-11-26T02:46:40.646Z,84.88
2022-11-26T02:49:11.207Z,84.75
2022-11-26T02:51:38.899Z,84.48
2022-11-26T02:54:08.656Z,84.61
2022-11-26T02:56:36.402Z,84.77
2022-11-26T02:59:04.338Z,84.73
2022-11-26T03:01:38.445Z,84.88
2022-11-26T03:04:16.151Z,84.63
2022-11-26T03:06:43.194Z,84.43
2022-11-26T03:09:09.821Z,84.57
2022-11-26T03:11:36.298Z,84.33
2022-11-26T03:14:02.850Z,84.36
2022-11-26T03:16:30.291Z,84.23
2022-11-26T03:18:56.823Z,83.76
2022-11-26T03:21:23.696Z,83.90
2022-11-26T03:23:50.139Z,84.27
2022-11-26T03:26:16.751Z,84.51
2022-11-26T03:28:43.285Z,84.35
2022-11-26T03:31:09.953Z,84.49
2022-11-26T03:33:36.473Z,84.43
2022-11-26T03:36:03.003Z,84.66
2022-11-26T03:38:29.495Z,84.48
2022-11-26T03:41:01.439Z,84.70
2022-11-26T03:43:28.078Z,84.25
2022-11-26T03:45:54.687Z,84.61
2022-11-26T03:48:21.547Z,84.20
2022-11-26T03:50:48.041Z,84.05
2022-11-26T03:53:14.580Z,84.30
2022-11-26T03:55:41.025Z,84.29
2022-11-26T03:58:07.488Z,84.53
2022-11-26T04:00:34.436Z,84.72
2022-11-26T04:03:01.094Z,85.14
2022-11-26T04:05:27.858Z,85.48
2022-11-26T04:07:54.412Z,85.55
2022-11-26T04:10:21.251Z,85.19
2022-11-26T04:12:47.794Z,85.92
2022-11-26T04:15:14.392Z,85.77
2022-11-26T04:17:41.276Z,86.18
2022-11-26T04:20:08.408Z,86.31
2022-11-26T04:22:34.837Z,86.20
2022-11-26T04:25:01.738Z,86.90
2022-11-26T04:27:28.256Z,87.52
2022-11-26T04:29:54.739Z,87.46
2022-11-26T04:32:21.650Z,87.19
2022-11-26T04:34:48.143Z,87.32
2022-11-26T04:37:14.799Z,87.25
2022-11-26T04:39:41.318Z,87.94
2022-11-26T04:42:08.066Z,87.41
2022-11-26T04:44:34.636Z,87.25
2022-11-26T04:47:01.317Z,87.40
2022-11-26T04:49:27.840Z,87.12
2022-11-26T04:51:54.274Z,86.88
2022-11-26T04:54:20.891Z,86.98
2022-11-26T04:56:47.392Z,86.51
2022-11-26T04:59:13.927Z,86.47
2022-11-26T05:01:40.477Z,86.48
2022-11-26T05:04:06.966Z,86.30
2022-11-26T05:06:33.574Z,86.33
2022-11-26T05:09:00.095Z,86.52
2022-11-26T05:11:26.594Z,86.29
2022-11-26T05:13:53.025Z,86.64
2022-11-26T05:16:19.462Z,86.76
2022-11-26T05:18:46.341Z,86.56
2022-11-26T05:21:12.942Z,86.71
2022-11-26T05:23:39.378Z,86.46
2022-11-26T05:26:06.027Z,86.21
2022-11-26T05:28:32.500Z,86.66
2022-11-26T05:31:02.984Z,86.49
2022-11-26T05:33:30.172Z,86.33
2022-11-26T05:35:56.716Z,86.61
2022-11-26T05:38:23.551Z,86.85
2022-11-26T05:40:50.113Z,86.62
2022-11-26T05:43:16.940Z,86.64
2022-11-26T05:45:43.686Z,86.45
2022-11-26T05:48:10.246Z,86.61
2022-11-26T05:50:36.742Z,86.79
2022-11-26T05:53:03.251Z,86.37
2022-11-26T05:55:29.976Z,86.93
2022-11-26T05:57:56.495Z,86.72
2022-11-26T06:00:23.295Z,86.85
2022-11-26T06:02:49.891Z,86.63
2022-11-26T06:05:16.630Z,86.83
2022-11-26T06:07:44.979Z,86.85
2022-11-26T06:10:12.969Z,86.73
2022-11-26T06:12:39.445Z,87.10
2022-11-26T06:15:06.578Z,86.89
2022-11-26T06:17:33.071Z,86.71
2022-11-26T06:19:59.913Z,86.82
2022-11-26T06:22:26.366Z,86.57
2022-11-26T06:24:52.957Z,86.17
2022-11-26T06:27:19.424Z,86.39
2022-11-26T06:29:45.860Z,86.82
2022-11-26T06:32:12.370Z,86.88
2022-11-26T06:34:39.250Z,86.78
2022-11-26T06:37:06.653Z,86.88
2022-11-26T06:39:33.138Z,86.94
2022-11-26T06:41:59.551Z,86.61
2022-11-26T06:44:25.976Z,86.81
2022-11-26T06:46:52.435Z,86.95
2022-11-26T06:49:18.903Z,86.78
2022-11-26T06:51:45.321Z,86.94
2022-11-26T06:54:11.786Z,86.43
2022-11-26T06:56:39.430Z,86.27
2022-11-26T06:59:05.875Z,86.76
2022-11-26T07:01:32.466Z,86.24
2022-11-26T07:03:59.683Z,86.71
2022-11-26T07:06:28.562Z,86.54
2022-11-26T07:08:57.572Z,86.25
2022-11-26T07:11:25.155Z,86.75
2022-11-26T07:13:52.430Z,87.23
2022-11-26T07:16:19.034Z,87.69
2022-11-26T07:18:50.742Z,87.71
2022-11-26T07:21:17.976Z,87.45
2022-11-26T07:23:44.419Z,87.59
2022-11-26T07:26:12.930Z,87.42
2022-11-26T07:28:40.072Z,87.71
2022-11-26T07:31:16.453Z,87.01
2022-11-26T07:33:43.661Z,87.29
2022-11-26T07:36:16.377Z,87.30
2022-11-26T07:38:42.817Z,87.15
2022-11-26T07:41:12.380Z,86.97
2022-11-26T07:43:41.092Z,86.96
2022-11-26T07:46:09.662Z,86.46
2022-11-26T07:48:37.026Z,86.67
2022-11-26T07:51:04.346Z,86.41
2022-11-26T07:53:32.025Z,86.41
2022-11-26T07:55:59.034Z,86.21
2022-11-26T07:58:26.917Z,86.24
2022-11-26T08:00:55.002Z,85.71
2022-11-26T08:03:22.059Z,86.29
2022-11-26T08:05:48.493Z,86.35
2022-11-26T08:08:14.983Z,86.58
2022-11-26T08:10:41.558Z,86.49
2022-11-26T08:13:08.221Z,85.93
2022-11-26T08:15:35.590Z,86.10
2022-11-26T08:18:02.060Z,86.64
2022-11-26T08:20:31.037Z,86.45
2022-11-26T08:22:57.468Z,85.66
2022-11-26T08:25:23.953Z,85.86
2022-11-26T08:27:50.426Z,85.74
2022-11-26T08:30:17.176Z,85.53
2022-11-26T08:32:43.701Z,85.78
2022-11-26T08:35:10.141Z,85.40
2022-11-26T08:37:36.843Z,85.70
2022-11-26T08:40:04.087Z,86.11
2022-11-26T08:42:30.977Z,85.54
2022-11-26T08:44:57.445Z,85.19
2022-11-26T08:47:23.930Z,85.23
2022-11-26T08:49:50.367Z,85.37
2022-11-26T08:52:16.871Z,85.28
2022-11-26T08:54:45.244Z,85.36
2022-11-26T08:57:12.422Z,85.07
2022-11-26T08:59:38.887Z,85.13
2022-11-26T09:02:05.432Z,85.17
2022-11-26T09:04:32.163Z,85.06
2022-11-26T09:06:58.596Z,85.13
2022-11-26T09:09:25.358Z,85.26
2022-11-26T09:11:56.497Z,84.67
2022-11-26T09:14:25.120Z,84.43
2022-11-26T09:16:52.486Z,84.40
2022-11-26T09:19:19.125Z,84.33
2022-11-26T09:21:46.605Z,84.31
2022-11-26T09:24:13.802Z,84.25
2022-11-26T09:26:40.740Z,84.39
2022-11-26T09:29:07.308Z,83.84
2022-11-26T09:31:34.130Z,83.65
2022-11-26T09:34:02.522Z,83.85
2022-11-26T09:36:29.327Z,83.78
2022-11-26T09:38:57.761Z,83.52
2022-11-26T09:41:24.171Z,83.66
2022-11-26T09:44:21.149Z,83.91
2022-11-26T09:47:13.084Z,83.76
2022-11-26T09:49:57.977Z,83.76
2022-11-26T09:52:30.466Z,83.59
2022-11-26T09:55:21.899Z,83.75
2022-11-26T09:57:59.241Z,83.21
2022-11-26T10:00:48.006Z,82.77
2022-11-26T10:03:17.160Z,82.94
2022-11-26T10:06:24.866Z,82.90
2022-11-26T10:09:13.177Z,83.22
2022-11-26T10:11:58.889Z,82.54
2022-11-26T10:15:02.174Z,82.52
2022-11-26T10:17:39.720Z,82.84
2022-11-26T10:20:32.803Z,82.33
2022-11-26T10:23:07.624Z,82.58
2022-11-26T10:25:40.255Z,82.13
2022-11-26T10:28:20.068Z,82.54
2022-11-26T10:31:02.662Z,82.42
2022-11-26T10:33:34.021Z,82.18
2022-11-26T10:36:00.741Z,82.40
2022-11-26T10:38:27.375Z,82.37
2022-11-26T10:40:53.966Z,82.30
2022-11-26T10:43:24.622Z,82.05
2022-11-26T10:45:54.459Z,81.42
2022-11-26T10:48:24.009Z,81.36
2022-11-26T10:51:14.179Z,81.58
2022-11-26T10:53:57.055Z,81.59
2022-11-26T10:56:36.746Z,81.73
2022-11-26T10:59:13.771Z,81.58
2022-11-26T11:01:40.594Z,81.79
2022-11-26T11:04:26.224Z,81.70
2022-11-26T11:06:53.107Z,81.77
2022-11-26T11:09:25.786Z,81.54
2022-11-26T11:12:16.250Z,81.88
2022-11-26T11:14:45.648Z,81.69
2022-11-26T11:17:36.189Z,81.65
2022-11-26T11:20:27.297Z,81.54
2022-11-26T11:23:00.371Z,81.77
2022-11-26T11:25:30.991Z,82.24
2022-11-26T11:28:10.517Z,81.97
2022-11-26T11:30:40.445Z,82.39
2022-11-26T11:33:23.242Z,82.08
2022-11-26T11:36:14.000Z,81.89
2022-11-26T11:38:52.299Z,82.06
2022-11-26T11:41:25.080Z,82.23
2022-11-26T11:43:58.673Z,82.01
2022-11-26T11:46:46.270Z,81.86
2022-11-26T11:49:28.737Z,81.75
2022-11-26T11:52:07.013Z,81.57
2022-11-26T11:54:54.418Z,82.04
2022-11-26T11:57:32.661Z,81.90
2022-11-26T12:00:13.607Z,81.49
2022-11-26T12:03:10.592Z,81.99
2022-11-26T12:05:40.237Z,81.59
2022-11-26T12:08:41.271Z,82.25
2022-11-26T12:11:18.839Z,81.69
2022-11-26T12:13:54.993Z,82.00
2022-11-26T12:16:25.908Z,82.22
2022-11-26T12:18:59.186Z,82.14
2022-11-26T12:21:40.091Z,81.84
2022-11-26T12:24:09.297Z,82.00
2022-11-26T12:26:48.490Z,81.61
2022-11-26T12:29:40.681Z,81.62
2022-11-26T12:32:07.203Z,81.38
2022-11-26T12:34:41.223Z,81.37
2022-11-26T12:37:20.049Z,81.51
2022-11-26T12:39:57.497Z,81.20
2022-11-26T12:43:05.876Z,81.41
2022-11-26T12:45:41.359Z,81.07
2022-11-26T12:48:25.868Z,81.20
2022-11-26T12:51:06.856Z,81.34
2022-11-26T12:53:52.302Z,81.11
2022-11-26T12:56:31.197Z,81.19
2022-11-26T12:59:25.742Z,80.98
2022-11-26T13:01:52.556Z,81.22
2022-11-26T13:04:37.985Z,81.17
2022-11-26T13:07:41.993Z,81.15
2022-11-26T13:10:20.682Z,81.71
2022-11-26T13:12:50.129Z,81.48
2022-11-26T13:15:31.597Z,81.28
2022-11-26T13:18:00.583Z,81.36
2022-11-26T13:20:30.005Z,81.23
2022-11-26T13:23:02.585Z,80.94
2022-11-26T13:25:50.440Z,80.96
2022-11-26T13:28:48.412Z,81.24
2022-11-26T13:31:27.271Z,80.90
2022-11-26T13:34:40.244Z,80.88
2022-11-26T13:37:06.926Z,81.20
2022-11-26T13:39:36.091Z,80.68
2022-11-26T13:42:21.413Z,80.92
2022-11-26T13:45:03.428Z,80.60
2022-11-26T13:47:48.867Z,80.17
2022-11-26T13:50:21.449Z,80.27
2022-11-26T13:52:58.912Z,80.45
2022-11-26T13:55:34.819Z,79.91
2022-11-26T13:58:06.248Z,80.24
2022-11-26T14:00:34.962Z,79.70
2022-11-26T14:03:03.204Z,79.75
2022-11-26T14:05:51.702Z,79.68
2022-11-26T14:08:41.486Z,79.85
2022-11-26T14:11:09.392Z,79.73
2022-11-26T14:13:36.471Z,79.92
2022-11-26T14:16:09.143Z,79.92
2022-11-26T14:18:51.851Z,80.18
2022-11-26T14:21:20.280Z,79.88
2022-11-26T14:23:48.018Z,80.04
2022-11-26T14:26:40.133Z,80.06
2022-11-26T14:29:17.618Z,79.95
2022-11-26T14:31:53.504Z,80.17
2022-11-26T14:34:39.764Z,80.34
2022-11-26T14:37:14.368Z,80.11
2022-11-26T14:39:43.839Z,80.32
2022-11-26T14:42:17.814Z,80.03
2022-11-26T14:44:44.742Z,79.90
2022-11-26T14:47:19.897Z,79.80
2022-11-26T14:49:54.341Z,80.07
2022-11-26T14:52:37.157Z,80.12
2022-11-26T14:55:08.445Z,80.36
2022-11-26T14:58:09.191Z,80.37
2022-11-26T15:00:36.722Z,80.14
2022-11-26T15:03:04.087Z,80.11
2022-11-26T15:05:33.321Z,80.29
2022-11-26T15:08:04.179Z,80.17
2022-11-26T15:10:37.679Z,80.32
2022-11-26T15:13:23.782Z,80.11
2022-11-26T15:15:55.497Z,80.56
2022-11-26T15:18:29.117Z,80.00
2022-11-26T15:20:56.348Z,80.23
2022-11-26T15:23:33.461Z,80.16
2022-11-26T15:26:00.981Z,79.92
2022-11-26T15:28:28.442Z,80.35
2022-11-26T15:31:00.502Z,80.02
2022-11-26T15:33:30.049Z,80.23
2022-11-26T15:35:59.416Z,80.11
2022-11-26T15:38:31.226Z,80.18
2022-11-26T15:40:57.665Z,80.14
2022-11-26T15:43:30.120Z,80.47
2022-11-26T15:46:14.515Z,80.16
2022-11-26T15:48:53.388Z,80.27
2022-11-26T15:51:43.577Z,79.63
2022-11-26T15:54:19.148Z,80.36
2022-11-26T15:56:50.241Z,79.90
2022-11-26T15:59:17.337Z,80.00
2022-11-26T16:01:45.951Z,80.14
2022-11-26T16:04:51.792Z,79.94
2022-11-26T16:07:19.860Z,80.05
2022-11-26T16:09:47.713Z,80.01
2022-11-26T16:12:34.799Z,80.13
2022-11-26T16:15:27.735Z,80.20
2022-11-26T16:17:54.215Z,79.70
2022-11-26T16:20:23.845Z,79.91
2022-11-26T16:22:53.081Z,79.96
2022-11-26T16:25:25.474Z,79.86
2022-11-26T16:28:03.524Z,79.94
2022-11-26T16:30:30.275Z,80.37
2022-11-26T16:32:56.831Z,80.11
2022-11-26T16:35:44.582Z,80.35
2022-11-26T16:38:26.398Z,80.48
2022-11-26T16:40:54.264Z,80.74
2022-11-26T16:43:20.926Z,80.07
2022-11-26T16:45:49.627Z,80.48
2022-11-26T16:48:23.228Z,80.34
2022-11-26T16:50:49.771Z,79.98
2022-11-26T16:53:16.200Z,80.59
2022-11-26T16:55:42.755Z,80.37
2022-11-26T16:58:19.576Z,80.03
2022-11-26T17:00:46.548Z,79.98
2022-11-26T17:03:14.637Z,80.49
2022-11-26T17:05:41.760Z,80.21
2022-11-26T17:08:11.572Z,80.37
2022-11-26T17:10:39.664Z,80.05
2022-11-26T17:13:06.359Z,80.40
2022-11-26T17:15:32.949Z,80.34
2022-11-26T17:18:07.669Z,80.17
2022-11-26T17:20:34.116Z,80.21
2022-11-26T17:23:00.579Z,80.12
2022-11-26T17:25:27.093Z,80.09
2022-11-26T17:27:53.594Z,80.59
2022-11-26T17:30:22.444Z,80.28
2022-11-26T17:32:49.342Z,80.47
2022-11-26T17:35:16.939Z,80.42
2022-11-26T17:37:43.862Z,80.38
2022-11-26T17:40:30.185Z,80.45
2022-11-26T17:42:56.726Z,80.84
2022-11-26T17:45:23.275Z,80.45
2022-11-26T17:47:50.183Z,80.56
2022-11-26T17:50:28.970Z,80.47
2022-11-26T17:52:55.962Z,80.47
2022-11-26T17:55:24.302Z,80.80
2022-11-26T17:57:51.272Z,81.05
2022-11-26T18:00:21.606Z,80.66
2022-11-26T18:02:48.482Z,80.60
2022-11-26T18:05:14.969Z,80.83
2022-11-26T18:07:41.584Z,80.77
2022-11-26T18:10:14.150Z,80.55
2022-11-26T18:12:41.133Z,80.79
2022-11-26T18:15:07.967Z,80.93
2022-11-26T18:17:34.445Z,80.83
2022-11-26T18:20:00.973Z,81.09
2022-11-26T18:22:28.299Z,81.07
2022-11-26T18:24:57.354Z,80.70
2022-11-26T18:27:28.800Z,80.72
2022-11-26T18:29:55.605Z,81.16
2022-11-26T18:32:22.567Z,80.84
2022-11-26T18:34:50.565Z,80.70
2022-11-26T18:37:17.543Z,80.73
2022-11-26T18:39:44.008Z,80.57
2022-11-26T18:44:58.232Z,81.08
2022-11-26T18:47:24.857Z,81.31
2022-11-26T18:49:51.358Z,80.98
2022-11-26T18:52:17.896Z,80.98
2022-11-26T18:54:44.375Z,80.82
2022-11-26T18:57:10.818Z,80.71
2022-11-26T18:59:37.702Z,80.77
2022-11-26T19:02:04.870Z,80.82
2022-11-26T19:04:31.477Z,81.16
2022-11-26T19:06:57.917Z,81.09
2022-11-26T19:09:24.416Z,81.03
2022-11-26T19:11:58.302Z,81.00
2022-11-26T19:14:25.063Z,80.98
2022-11-26T19:16:51.935Z,80.96
2022-11-26T19:19:18.550Z,81.04
2022-11-26T19:21:45.013Z,80.80
2022-11-26T19:24:12.622Z,80.81
2022-11-26T19:26:41.277Z,80.89
2022-11-26T19:29:09.135Z,80.87
2022-11-26T19:31:39.011Z,80.97
2022-11-26T19:34:12.507Z,80.85
2022-11-26T19:36:39.353Z,80.97
2022-11-26T19:39:06.996Z,81.15
2022-11-26T19:41:33.758Z,81.55
2022-11-26T19:44:01.046Z,81.20
2022-11-26T19:46:27.915Z,81.69
2022-11-26T19:48:55.656Z,81.37
2022-11-26T19:51:24.473Z,81.50
2022-11-26T19:53:53.670Z,81.32
2022-11-26T19:56:30.995Z,81.16
2022-11-26T19:58:58.982Z,81.43
2022-11-26T20:01:27.450Z,81.21
2022-11-26T20:03:54.217Z,81.70
2022-11-26T20:06:26.258Z,81.77
2022-11-26T20:08:53.347Z,81.69
2022-11-26T20:11:20.207Z,81.76
2022-11-26T20:13:48.798Z,81.15
2022-11-26T20:16:19.380Z,81.25
2022-11-26T20:18:46.697Z,81.34
2022-11-26T20:21:15.411Z,81.27
2022-11-26T20:23:42.703Z,81.13
2022-11-26T20:26:30.326Z,81.30
2022-11-26T20:29:00.827Z,81.28
2022-11-26T20:31:27.596Z,81.05
2022-11-26T20:33:54.873Z,81.04
2022-11-26T20:36:23.201Z,81.14
2022-11-26T20:38:54.556Z,80.82
2022-11-26T20:41:22.161Z,80.83
2022-11-26T20:43:53.535Z,80.54
2022-11-26T20:46:23.535Z,80.66
2022-11-26T20:48:50.206Z,80.70
2022-11-26T20:51:19.324Z,80.79
2022-11-26T20:53:50.510Z,80.54
2022-11-26T20:56:19.216Z,80.49
2022-11-26T20:58:46.169Z,80.73
2022-11-26T21:01:22.565Z,80.46
2022-11-26T21:03:50.224Z,80.41
2022-11-26T21:06:18.929Z,80.14
2022-11-26T21:08:45.822Z,80.18
2022-11-26T21:11:13.439Z,80.22
2022-11-26T21:13:40.641Z,80.21
2022-11-26T21:16:11.687Z,80.17
2022-11-26T21:18:38.492Z,80.29
2022-11-26T21:21:13.311Z,80.91
2022-11-26T21:23:40.784Z,80.43
2022-11-26T21:26:09.832Z,80.16
2022-11-26T21:28:36.827Z,80.50
2022-11-26T21:31:14.474Z,80.07
2022-11-26T21:33:41.013Z,80.07
2022-11-26T21:36:13.750Z,79.89
2022-11-26T21:38:43.622Z,79.87
2022-11-26T21:41:12.647Z,79.99
2022-11-26T21:43:44.109Z,79.92
2022-11-26T21:46:15.816Z,80.14
2022-11-26T21:48:42.514Z,80.01
2022-11-26T21:51:15.518Z,79.79
2022-11-26T21:53:42.824Z,80.12
2022-11-26T21:56:16.600Z,79.84
2022-11-26T21:58:43.621Z,80.08
2022-11-26T22:01:24.683Z,80.14
2022-11-26T22:03:56.865Z,79.86
2022-11-26T22:06:24.267Z,79.92
2022-11-26T22:08:51.265Z,79.71
2022-11-26T22:11:23.777Z,79.79
2022-11-26T22:13:51.420Z,79.65
2022-11-26T22:16:20.934Z,79.61
2022-11-26T22:18:48.461Z,79.99
2022-11-26T22:21:19.026Z,79.51
2022-11-26T22:23:46.085Z,79.95
2022-11-26T22:26:12.731Z,79.67
2022-11-26T22:28:39.707Z,79.62
2022-11-26T22:31:09.460Z,80.04
2022-11-26T22:33:35.939Z,80.02
2022-11-26T22:36:02.691Z,79.98
2022-11-26T22:38:29.141Z,79.98
2022-11-26T22:41:00.274Z,79.72
2022-11-26T22:43:26.710Z,80.19
2022-11-26T22:45:53.250Z,79.78
2022-11-26T22:48:19.716Z,79.74
2022-11-26T22:50:53.647Z,80.04
2022-11-26T22:53:21.301Z,80.06
2022-11-26T22:55:55.990Z,80.08
2022-11-26T22:58:24.321Z,79.95
2022-11-26T23:00:54.092Z,79.62
2022-11-26T23:03:20.861Z,79.89
2022-11-26T23:05:47.865Z,80.13
2022-11-26T23:08:15.433Z,79.92
2022-11-26T23:10:42.391Z,79.76
2022-11-26T23:13:13.597Z,79.64
2022-11-26T23:15:44.668Z,79.62
2022-11-26T23:18:13.513Z,79.83
2022-11-26T23:20:40.436Z,79.66
2022-11-26T23:23:07.043Z,79.69
2022-11-26T23:25:38.454Z,79.72
2022-11-26T23:28:06.905Z,79.47
2022-11-26T23:30:34.510Z,79.73
2022-11-26T23:33:01.192Z,79.84
2022-11-26T23:35:28.009Z,79.54
2022-11-26T23:37:54.440Z,79.64
2022-11-26T23:40:20.953Z,79.81
2022-11-26T23:42:47.551Z,79.82
2022-11-26T23:45:13.984Z,79.78
2022-11-26T23:47:40.420Z,79.62
2022-11-26T23:50:07.816Z,79.36
2022-11-26T23:52:35.710Z,79.29
2022-11-26T23:55:02.280Z,79.39
2022-11-26T23:57:28.761Z,79.53
2022-11-26T23:59:55.191Z,79.47
